Minneapolis, MN (55444)

1:23 PM CDT on July 17, 2018 (GMT -0500)
Brooklyn Park - East Side - | | Change Station
Active Advisory: Flood Warning

Elev 850 ft 45.11 °N, 93.29 °W | Updated 4 seconds ago

Clear
Clear
78.3 °F
Feels Like 79 °F
N
1.7
Wind Variable Wind from NNW
Gusts 0.0 mph

Today
High -- | Low -- °F
--% Chance of Precip.
Yesterday
High -- | Low -- °F
Precip. -- in
Pressure 30.13 in
Visibility 10.0 miles
Clouds Clear
Heat Index 79 °F
Dew Point 54 °F
Humidity 43%
Rainfall 0.00 in
Snow Depth Not available.
5:42 AM 8:55 PM
Waxing Crescent, 28% visible
METAR KMIC 171753Z 05005KT 10SM CLR 25/12 A3014 RMK AO2 SLP202 T02500122 10256 20178 58002
Pressure 30.13 in
Visibility 10.0 miles
Clouds Clear
Heat Index 79 °F
Dew Point 54 °F
Humidity 43%
Rainfall 0.00 in
Snow Depth Not available.
5:42 AM 8:55 PM
Waxing Crescent, 28% visible
METAR KMIC 171753Z 05005KT 10SM CLR 25/12 A3014 RMK AO2 SLP202 T02500122 10256 20178 58002

Get Your Daily Forecast Email!

Thanks for signing up!

Be on the lookout for a verification email in your inbox.

You'll start receiving severe weather alerts in your inbox..

×

10-Day Weather Forecast

Almanac

Astronomy

Jul. 17, 2018 Rise Set
Actual Time
Civil Twilight
Nautical Twilight
Astronomical Twilight
Moon
Length of Visible Light
Length of Day
Tomorrow will be .
, % of the Moon is Illuminated

Today's Extremes

State Highs State Lows

Community

WunderPhotos

Category 6

Welcome to Category 6. This is the collective home for Weather Underground's featured writeups by Dr. Jeff Masters (right), Bob Henson (left), Chris Burt, and other regular contributors.

Nearby

Air Quality

  Air Quality AQ Index Pollutant
Not available.

Snow Depth

Station Depth Elevation

Earthquake Activity

City Distance Mag. Time & Date
Minimum magnitude displayed is 2.5.

Coastal Water Temperatures

Place Temperature

Stations

Nearby Weather Stations

Station Location Temp. Windchill Dew Point Humidity Wind Precip. Elev Updated Type
                   

Watches & Warnings

Flood Warning
Issued: 9:29 AM CDT Jul. 17, 2018 – National Weather Service

... Flood Warning continues for
the Minnesota river at Savage.
* Until Wednesday afternoon.
* At 9:00 am Tuesday the stage was 702.4 feet.
* Minor flooding is occurring and minor flooding is forecast.
* Flood stage is 702.0 feet.
* Forecast... the river will continue to fall to below flood stage by
tonight.
* Impact... at 702.0 feet... barge loading stops at Port Cargill, and
other flood prevention measures are begun. Water begins to impact
Black Dog Road in Burnsville.
* Impact... at 700.0 feet... flood waters begin to cover trails at Fort
Snelling State Park as well as low parts on the Bloomington Ferry
bridge trail just east of US 169.


Lat... Lon 4484 9348 4484 9330 4491 9322 4482 9312 4473 9342

Margraf